Terminal Aerodrome Forecast
Issued by NWS Twin Cities, MN

Home | Current Version | Previous Version | Text Only | Print | Product List | Glossary Off
Versions: 1 2 3 4 5 6 7 8 9 10 11 12 13 14 15 16 17 18

000
FTUS43 KMPX 220500
TAFSTC
TAF
KSTC 220540Z 2206/2306 15005KT P6SM VCSH SCT040 BKN120
      TEMPO 2206/2207 -SHRA BKN050 OVC100
     FM220800 21013KT P6SM SCT060 BKN100
     FM221400 31017G25KT P6SM SCT040 SCT250
     FM230000 34008KT P6SM FEW250=

USA.gov is the U.S. government's official web portal to all federal, state and local government web resources and services.